createdAt,value
2019-03-06T00:02:21.342Z,17.50
2019-03-06T00:04:51.066Z,20.40
2019-03-06T00:07:20.811Z,25.23
2019-03-06T00:09:50.449Z,25.43
2019-03-06T00:12:20.110Z,22.90
2019-03-06T00:14:49.746Z,21.97
2019-03-06T00:17:19.544Z,24.67
2019-03-06T00:19:49.172Z,31.50
2019-03-06T00:22:18.886Z,32.83
2019-03-06T00:24:48.925Z,20.13
2019-03-06T00:27:18.551Z,22.03
2019-03-06T00:29:48.222Z,26.27
2019-03-06T00:32:17.852Z,22.40
2019-03-06T00:34:47.504Z,19.63
2019-03-06T00:37:17.663Z,20.83
2019-03-06T00:39:49.035Z,24.93
2019-03-06T00:42:18.742Z,20.30
2019-03-06T00:44:48.446Z,18.13
2019-03-06T00:47:18.077Z,26.77
2019-03-06T00:49:47.724Z,20.37
2019-03-06T00:52:17.347Z,30.93
2019-03-06T00:54:48.114Z,19.63
2019-03-06T00:57:17.780Z,30.97
2019-03-06T00:59:47.886Z,18.33
2019-03-06T01:02:17.539Z,18.67
2019-03-06T01:04:47.237Z,23.47
2019-03-06T01:07:16.922Z,23.20
2019-03-06T01:09:46.572Z,28.57
2019-03-06T01:12:16.204Z,24.23
2019-03-06T01:14:45.930Z,16.97
2019-03-06T01:17:15.561Z,18.53
2019-03-06T01:19:45.205Z,20.97
2019-03-06T01:22:14.861Z,25.33
2019-03-06T01:24:44.532Z,17.83
2019-03-06T01:27:14.183Z,18.20
2019-03-06T01:29:43.836Z,25.30
2019-03-06T01:32:13.488Z,25.80
2019-03-06T01:34:59.955Z,21.30
2019-03-06T01:37:31.329Z,18.80
2019-03-06T01:40:20.711Z,17.37
2019-03-06T01:42:54.542Z,17.30
2019-03-06T01:45:24.355Z,20.03
2019-03-06T01:47:54.007Z,20.67
2019-03-06T01:50:23.655Z,21.83
2019-03-06T01:52:53.286Z,15.70
2019-03-06T01:55:22.946Z,17.50
2019-03-06T01:57:52.573Z,20.13
2019-03-06T02:00:22.668Z,20.87
2019-03-06T02:02:52.339Z,13.00
2019-03-06T02:05:21.972Z,16.27
2019-03-06T02:07:51.617Z,18.87
2019-03-06T02:10:21.416Z,18.77
2019-03-06T02:12:51.078Z,15.47
2019-03-06T02:15:20.879Z,17.80
2019-03-06T02:17:50.532Z,17.47
2019-03-06T02:20:20.181Z,24.40
2019-03-06T02:22:49.912Z,14.43
2019-03-06T02:25:19.612Z,19.23
2019-03-06T02:27:49.253Z,21.10
2019-03-06T02:30:21.825Z,26.10
2019-03-06T02:32:51.466Z,24.47
2019-03-06T02:35:21.370Z,17.47
2019-03-06T02:37:51.010Z,20.33
2019-03-06T02:40:20.647Z,15.43
2019-03-06T02:43:02.467Z,15.80
2019-03-06T02:45:32.088Z,13.97
2019-03-06T02:48:01.736Z,23.47
2019-03-06T02:50:31.376Z,18.43
2019-03-06T02:53:02.952Z,16.63
2019-03-06T02:55:32.596Z,24.33
2019-03-06T02:58:06.873Z,17.90
2019-03-06T03:00:38.529Z,18.23
2019-03-06T03:03:25.942Z,19.87
2019-03-06T03:06:05.900Z,16.07
2019-03-06T03:08:35.553Z,23.03
2019-03-06T03:11:05.406Z,22.70
2019-03-06T03:13:35.178Z,20.30
2019-03-06T03:16:05.058Z,20.17
2019-03-06T03:18:34.952Z,25.83
2019-03-06T03:21:04.822Z,28.87
2019-03-06T03:23:34.661Z,23.77
2019-03-06T03:26:04.458Z,22.13
2019-03-06T03:28:34.121Z,20.73
2019-03-06T03:31:03.796Z,25.53
2019-03-06T03:33:33.455Z,26.73
2019-03-06T03:36:03.123Z,20.20
2019-03-06T03:38:32.759Z,26.67
2019-03-06T03:41:02.621Z,26.43
2019-03-06T03:43:47.385Z,26.80
2019-03-06T03:46:17.028Z,22.20
2019-03-06T03:48:46.696Z,24.63
2019-03-06T03:51:16.330Z,23.10
2019-03-06T03:53:46.832Z,28.77
2019-03-06T03:56:16.529Z,24.80
2019-03-06T03:58:46.158Z,33.57
2019-03-06T04:01:34.329Z,26.70
2019-03-06T04:04:04.154Z,30.03
2019-03-06T04:06:33.794Z,31.80
2019-03-06T04:09:04.490Z,26.70
2019-03-06T04:11:34.123Z,28.20
2019-03-06T04:14:03.767Z,26.67
2019-03-06T04:16:33.592Z,30.40
2019-03-06T04:19:03.238Z,30.37
2019-03-06T04:21:32.876Z,31.20
2019-03-06T04:24:02.524Z,29.13
2019-03-06T04:26:32.160Z,29.40
2019-03-06T04:29:01.896Z,31.33
2019-03-06T04:31:31.830Z,35.90
2019-03-06T04:34:01.474Z,40.83
2019-03-06T04:36:31.114Z,29.77
2019-03-06T04:39:00.789Z,32.63
2019-03-06T04:41:30.414Z,36.97
2019-03-06T04:44:00.079Z,27.27
2019-03-06T04:46:29.704Z,43.80
2019-03-06T04:48:59.351Z,34.77
2019-03-06T04:51:28.985Z,32.03
2019-03-06T04:53:58.642Z,30.37
2019-03-06T04:56:28.287Z,39.87
2019-03-06T04:58:57.949Z,27.37
2019-03-06T05:01:27.588Z,32.20
2019-03-06T05:03:57.236Z,31.17
2019-03-06T05:06:26.900Z,32.23
2019-03-06T05:08:56.522Z,37.30
2019-03-06T05:11:26.173Z,35.73
2019-03-06T05:13:55.828Z,34.50
2019-03-06T05:16:27.480Z,38.10
2019-03-06T05:18:58.190Z,31.97
2019-03-06T05:21:27.824Z,38.77
2019-03-06T05:23:57.488Z,33.47
2019-03-06T05:26:27.173Z,35.57
2019-03-06T05:28:57.053Z,35.83
2019-03-06T05:31:26.705Z,39.43
2019-03-06T05:33:56.365Z,37.87
2019-03-06T05:36:29.070Z,39.13
2019-03-06T05:39:07.043Z,34.10
2019-03-06T05:41:36.692Z,36.40
2019-03-06T05:44:06.511Z,37.20
2019-03-06T05:46:36.212Z,30.83
2019-03-06T05:49:05.952Z,40.33
2019-03-06T05:51:35.587Z,37.93
2019-03-06T05:54:05.251Z,36.13
2019-03-06T05:56:34.904Z,35.10
2019-03-06T05:59:04.542Z,45.63
2019-03-06T06:01:34.474Z,43.53
2019-03-06T06:04:04.110Z,44.40
2019-03-06T06:06:33.837Z,34.93
2019-03-06T06:09:04.508Z,36.00
2019-03-06T06:11:35.465Z,44.60
2019-03-06T06:14:05.099Z,38.67
2019-03-06T06:16:34.741Z,37.00
2019-03-06T06:19:04.387Z,42.60
2019-03-06T06:21:50.787Z,40.33
2019-03-06T06:24:20.417Z,43.67
2019-03-06T06:26:50.079Z,41.60
2019-03-06T06:29:19.776Z,40.50
2019-03-06T06:31:49.522Z,38.83
2019-03-06T06:34:19.236Z,36.27
2019-03-06T06:36:48.961Z,42.07
2019-03-06T06:39:18.603Z,44.93
2019-03-06T06:41:48.269Z,41.73
2019-03-06T06:44:17.919Z,43.77
2019-03-06T06:46:47.585Z,44.37
2019-03-06T06:49:17.222Z,45.23
2019-03-06T06:51:56.078Z,45.10
2019-03-06T06:54:45.371Z,40.30
2019-03-06T06:57:50.151Z,43.07
2019-03-06T07:00:33.348Z,49.03
2019-03-06T07:03:38.100Z,45.30
2019-03-06T07:06:15.572Z,47.37
2019-03-06T07:08:46.852Z,46.33
2019-03-06T07:11:18.157Z,48.27
2019-03-06T07:13:58.178Z,46.77
2019-03-06T07:16:32.132Z,52.27
2019-03-06T07:19:12.410Z,49.73
2019-03-06T07:21:59.775Z,43.43
2019-03-06T07:24:47.263Z,40.53
2019-03-06T07:27:33.537Z,42.40
2019-03-06T07:30:21.654Z,45.90
2019-03-06T07:32:55.870Z,39.93
2019-03-06T07:36:08.266Z,40.03
2019-03-06T07:38:37.917Z,38.07
2019-03-06T07:41:21.191Z,36.57
2019-03-06T07:44:01.654Z,38.00
2019-03-06T07:46:49.340Z,44.03
2019-03-06T07:49:23.280Z,42.40
2019-03-06T07:52:00.337Z,36.17
2019-03-06T07:54:48.123Z,35.33
2019-03-06T07:57:19.428Z,40.63
2019-03-06T07:59:49.124Z,36.87
2019-03-06T08:02:24.987Z,33.57
2019-03-06T08:04:55.463Z,35.43
2019-03-06T08:07:25.200Z,31.23
2019-03-06T08:09:54.829Z,28.43
2019-03-06T08:12:26.290Z,30.63
2019-03-06T08:15:12.621Z,31.73
2019-03-06T08:17:55.990Z,33.47
2019-03-06T08:20:30.125Z,30.53
2019-03-06T08:23:01.427Z,31.57
2019-03-06T08:25:38.879Z,33.03
2019-03-06T08:28:08.533Z,33.13
2019-03-06T08:30:39.806Z,30.40
2019-03-06T08:33:17.984Z,31.67
2019-03-06T08:35:41.544Z,32.50
2019-03-06T08:38:17.315Z,31.00
2019-03-06T08:40:46.952Z,29.17
2019-03-06T08:43:17.061Z,30.30
2019-03-06T08:45:48.680Z,30.10
2019-03-06T08:48:20.045Z,26.90
2019-03-06T08:50:51.303Z,29.13
2019-03-06T08:53:25.418Z,28.47
2019-03-06T08:55:59.363Z,29.73
2019-03-06T08:58:39.377Z,35.90
2019-03-06T09:01:35.793Z,25.10
2019-03-06T09:04:08.246Z,22.80
2019-03-06T09:06:42.543Z,24.53
2019-03-06T09:09:24.800Z,25.30
2019-03-06T09:12:12.648Z,29.87
2019-03-06T09:14:55.632Z,23.07
2019-03-06T09:17:27.370Z,27.23
2019-03-06T09:19:58.650Z,38.80
2019-03-06T09:22:29.930Z,21.83
2019-03-06T09:25:04.026Z,26.40
2019-03-06T09:27:41.577Z,33.77
2019-03-06T09:30:30.912Z,21.73
2019-03-06T09:33:11.015Z,20.77
2019-03-06T09:35:45.215Z,24.37
2019-03-06T09:38:16.562Z,26.37
2019-03-06T09:40:53.507Z,28.33
2019-03-06T09:43:27.465Z,26.97
2019-03-06T09:46:15.555Z,23.77
2019-03-06T09:48:49.955Z,20.23
2019-03-06T09:51:37.809Z,20.53
2019-03-06T09:54:24.187Z,19.60
2019-03-06T09:56:55.768Z,22.27
2019-03-06T09:59:43.361Z,20.37
2019-03-06T10:02:18.071Z,27.40
2019-03-06T10:05:01.533Z,22.57
2019-03-06T10:07:49.071Z,17.50
2019-03-06T10:10:20.622Z,18.67
2019-03-06T10:13:03.888Z,25.70
2019-03-06T10:15:46.951Z,25.77
2019-03-06T10:18:24.175Z,20.63
2019-03-06T10:20:53.838Z,26.63
2019-03-06T10:23:23.459Z,21.47
2019-03-06T10:25:53.110Z,27.03
2019-03-06T10:28:27.856Z,24.67
2019-03-06T10:31:02.197Z,28.70
2019-03-06T10:33:25.416Z,23.10
2019-03-06T10:35:55.093Z,22.40
2019-03-06T10:38:24.797Z,19.83
2019-03-06T10:40:54.535Z,26.30
2019-03-06T10:43:24.184Z,22.73
2019-03-06T10:46:03.110Z,23.03
2019-03-06T10:48:32.774Z,19.13
2019-03-06T10:51:02.421Z,17.47
2019-03-06T10:53:40.903Z,18.43
2019-03-06T10:56:03.421Z,23.27
2019-03-06T10:58:33.146Z,21.37
2019-03-06T11:01:03.215Z,22.20
2019-03-06T11:03:40.495Z,18.50
2019-03-06T11:06:11.612Z,18.93
2019-03-06T11:08:41.376Z,19.07
2019-03-06T11:11:11.194Z,24.53
2019-03-06T11:13:41.025Z,23.20
2019-03-06T11:16:11.576Z,15.33
2019-03-06T11:18:41.403Z,19.80
2019-03-06T11:21:11.590Z,20.80
2019-03-06T11:23:41.442Z,19.03
2019-03-06T11:26:11.287Z,21.73
2019-03-06T11:28:41.097Z,21.37
2019-03-06T11:31:11.793Z,18.17
2019-03-06T11:33:41.874Z,24.30
2019-03-06T11:36:11.825Z,23.93
2019-03-06T11:38:41.453Z,20.47
2019-03-06T11:41:11.168Z,19.67
2019-03-06T11:43:41.112Z,20.77
2019-03-06T11:46:11.709Z,22.57
2019-03-06T11:48:41.440Z,26.73
2019-03-06T11:51:11.286Z,21.00
2019-03-06T11:53:41.016Z,23.47
2019-03-06T11:56:14.315Z,21.87
2019-03-06T11:58:44.692Z,21.93
2019-03-06T12:01:17.929Z,22.80
2019-03-06T12:03:48.472Z,25.27
2019-03-06T12:06:18.364Z,22.47
2019-03-06T12:08:48.356Z,22.33
2019-03-06T12:11:18.072Z,22.50
2019-03-06T12:13:48.091Z,22.87
2019-03-06T12:16:19.462Z,23.77
2019-03-06T12:18:49.340Z,21.43
2019-03-06T12:21:19.308Z,18.70
2019-03-06T12:23:49.137Z,25.13
2019-03-06T12:26:18.851Z,23.60
2019-03-06T12:28:48.666Z,22.03
2019-03-06T12:31:18.378Z,19.57
2019-03-06T12:33:48.397Z,22.20
2019-03-06T12:36:19.771Z,21.50
2019-03-06T12:38:49.481Z,20.10
2019-03-06T12:41:19.304Z,24.40
2019-03-06T12:43:56.184Z,18.77
2019-03-06T12:46:25.846Z,24.63
2019-03-06T12:48:59.394Z,18.80
2019-03-06T12:51:29.531Z,21.17
2019-03-06T12:53:59.519Z,22.37
2019-03-06T12:56:29.894Z,20.97
2019-03-06T12:58:59.653Z,25.87
2019-03-06T13:01:29.360Z,20.97
2019-03-06T13:03:59.055Z,25.83
2019-03-06T13:06:28.686Z,29.97
2019-03-06T13:08:59.024Z,24.93
2019-03-06T13:11:28.689Z,26.77
2019-03-06T13:14:02.497Z,27.87
2019-03-06T13:16:32.146Z,20.27
2019-03-06T13:19:02.215Z,20.13
2019-03-06T13:21:33.951Z,22.57
2019-03-06T13:24:03.709Z,22.27
2019-03-06T13:26:33.363Z,22.73
2019-03-06T13:29:03.928Z,23.93
2019-03-06T13:31:34.014Z,23.93
2019-03-06T13:34:05.359Z,22.87
2019-03-06T13:36:35.070Z,25.83
2019-03-06T13:39:06.851Z,26.37
2019-03-06T13:41:36.628Z,22.93
2019-03-06T13:44:06.429Z,18.90
2019-03-06T13:46:36.327Z,21.47
2019-03-06T13:49:06.232Z,17.57
2019-03-06T13:51:35.949Z,18.17
2019-03-06T13:54:05.856Z,21.83
2019-03-06T13:56:35.613Z,18.47
2019-03-06T13:59:05.882Z,17.70
2019-03-06T14:01:35.752Z,16.20
2019-03-06T14:04:05.643Z,17.33
2019-03-06T14:06:35.545Z,17.60
2019-03-06T14:09:07.775Z,17.60
2019-03-06T14:11:37.684Z,16.93
2019-03-06T14:14:07.371Z,22.53
2019-03-06T14:16:37.041Z,16.10
2019-03-06T14:19:06.802Z,18.00
2019-03-06T14:21:36.583Z,19.17
2019-03-06T14:24:06.391Z,23.43
2019-03-06T14:26:36.359Z,18.93
2019-03-06T14:29:06.004Z,21.87
2019-03-06T14:31:35.730Z,17.73
2019-03-06T14:34:05.504Z,21.03
2019-03-06T14:36:35.348Z,16.17
2019-03-06T14:39:08.092Z,12.17
2019-03-06T14:41:37.839Z,15.30
2019-03-06T14:44:07.899Z,14.83
2019-03-06T14:46:37.611Z,17.43
2019-03-06T14:49:07.240Z,14.67
2019-03-06T14:51:37.091Z,19.10
2019-03-06T14:54:07.881Z,17.57
2019-03-06T14:56:37.738Z,13.40
2019-03-06T14:59:07.430Z,15.20
2019-03-06T15:01:37.082Z,14.80
2019-03-06T15:04:06.821Z,14.00
2019-03-06T15:06:36.698Z,15.50
2019-03-06T15:09:10.823Z,14.70
2019-03-06T15:11:40.702Z,14.23
2019-03-06T15:14:10.404Z,14.97
2019-03-06T15:16:40.123Z,14.33
2019-03-06T15:19:09.773Z,13.87
2019-03-06T15:21:39.650Z,14.03
2019-03-06T15:24:09.297Z,13.87
2019-03-06T15:26:39.067Z,17.03
2019-03-06T15:29:08.742Z,14.37
2019-03-06T15:31:38.442Z,17.17
2019-03-06T15:34:08.103Z,19.50
2019-03-06T15:36:40.985Z,17.77
2019-03-06T15:39:30.598Z,16.80
2019-03-06T15:42:02.303Z,14.87
2019-03-06T15:44:32.026Z,16.50
2019-03-06T15:47:01.699Z,16.70
2019-03-06T15:49:31.355Z,12.67
2019-03-06T15:52:00.979Z,17.10
2019-03-06T15:54:30.619Z,18.93
2019-03-06T15:57:00.250Z,15.43
2019-03-06T15:59:29.967Z,13.53
2019-03-06T16:01:59.585Z,12.77
2019-03-06T16:04:29.273Z,12.63
2019-03-06T16:06:58.983Z,33.80
2019-03-06T16:09:28.800Z,13.40
2019-03-06T16:11:58.512Z,17.80
2019-03-06T16:14:28.330Z,12.83
2019-03-06T16:16:58.134Z,15.53
2019-03-06T16:19:36.819Z,16.77
2019-03-06T16:22:06.626Z,22.73
2019-03-06T16:24:37.656Z,14.87
2019-03-06T16:27:07.483Z,12.30
2019-03-06T16:29:47.429Z,16.03
2019-03-06T16:32:18.190Z,13.73
2019-03-06T16:34:48.123Z,14.83
2019-03-06T16:37:17.841Z,14.47
2019-03-06T16:39:47.540Z,17.30
2019-03-06T16:42:17.228Z,15.13
2019-03-06T16:44:46.900Z,17.17
2019-03-06T16:47:16.532Z,12.23
2019-03-06T16:49:46.235Z,15.30
2019-03-06T16:52:15.875Z,12.43
2019-03-06T16:54:45.512Z,17.03
2019-03-06T16:57:15.284Z,14.53
2019-03-06T16:59:44.990Z,18.17
2019-03-06T17:02:14.912Z,13.27
2019-03-06T17:04:44.678Z,11.73
2019-03-06T17:07:14.463Z,13.20
2019-03-06T17:09:44.283Z,9.77
2019-03-06T17:12:16.476Z,12.60
2019-03-06T17:14:47.760Z,12.43
2019-03-06T17:17:20.255Z,12.90
2019-03-06T17:19:49.904Z,12.10
2019-03-06T17:22:19.558Z,13.50
2019-03-06T17:24:49.219Z,12.60
2019-03-06T17:27:18.919Z,12.00
2019-03-06T17:29:48.781Z,16.10
2019-03-06T17:32:18.407Z,10.83
2019-03-06T17:34:48.128Z,14.57
2019-03-06T17:37:17.880Z,10.80
2019-03-06T17:39:47.599Z,11.33
2019-03-06T17:42:17.809Z,12.10
2019-03-06T17:44:47.460Z,11.53
2019-03-06T17:47:17.097Z,12.43
2019-03-06T17:49:46.755Z,11.70
2019-03-06T17:52:16.397Z,9.90
2019-03-06T17:54:46.304Z,9.57
2019-03-06T17:57:15.943Z,11.87
2019-03-06T17:59:45.560Z,18.03
2019-03-06T18:02:15.353Z,23.93
2019-03-06T18:04:45.009Z,22.73
2019-03-06T18:07:14.755Z,15.77
2019-03-06T18:09:44.651Z,12.50
2019-03-06T18:12:16.083Z,14.47
2019-03-06T18:14:50.819Z,12.73
2019-03-06T18:17:20.528Z,11.27
2019-03-06T18:19:50.316Z,10.20
2019-03-06T18:22:20.872Z,10.33
2019-03-06T18:24:50.924Z,14.20
2019-03-06T18:27:26.402Z,14.90
2019-03-06T18:29:52.031Z,17.00
2019-03-06T18:32:23.598Z,13.57
2019-03-06T18:34:53.076Z,11.00
2019-03-06T18:37:22.958Z,16.07
2019-03-06T18:39:52.675Z,15.93
2019-03-06T18:42:22.315Z,13.40
2019-03-06T18:44:51.942Z,12.53
2019-03-06T18:47:21.601Z,11.27
2019-03-06T18:49:51.217Z,13.97
2019-03-06T18:52:20.863Z,14.40
2019-03-06T18:54:50.488Z,13.43
2019-03-06T18:57:20.205Z,11.13
2019-03-06T18:59:49.833Z,18.90
2019-03-06T19:02:19.514Z,15.60
2019-03-06T19:04:49.204Z,10.27
2019-03-06T19:07:18.847Z,12.47
2019-03-06T19:09:48.475Z,20.23
2019-03-06T19:12:18.129Z,13.00
2019-03-06T19:14:47.758Z,10.63
2019-03-06T19:17:17.495Z,15.83
2019-03-06T19:19:47.413Z,15.13
2019-03-06T19:22:17.067Z,19.67
2019-03-06T19:24:46.788Z,13.80
2019-03-06T19:27:16.421Z,13.73
2019-03-06T19:29:46.219Z,11.63
2019-03-06T19:32:15.923Z,13.63
2019-03-06T19:34:45.806Z,20.97
2019-03-06T19:37:15.513Z,14.33
2019-03-06T19:39:45.177Z,13.33
2019-03-06T19:42:14.800Z,12.33
2019-03-06T19:44:45.453Z,10.97
2019-03-06T19:47:15.142Z,12.90
2019-03-06T19:49:44.786Z,12.63
2019-03-06T19:52:14.428Z,16.27
2019-03-06T19:54:44.071Z,15.50
2019-03-06T19:57:13.769Z,14.23
2019-03-06T19:59:43.486Z,12.17
2019-03-06T20:02:13.178Z,15.23
2019-03-06T20:04:42.831Z,18.83
2019-03-06T20:07:12.473Z,18.97
2019-03-06T20:09:42.136Z,15.27
2019-03-06T20:12:11.764Z,12.67
2019-03-06T20:14:41.436Z,14.53
2019-03-06T20:17:11.268Z,16.83
2019-03-06T20:19:41.485Z,15.67
2019-03-06T20:22:11.266Z,20.57
2019-03-06T20:24:41.335Z,21.87
2019-03-06T20:27:11.333Z,18.60
2019-03-06T20:29:41.584Z,13.67
2019-03-06T20:32:11.641Z,18.70
2019-03-06T20:34:41.284Z,19.20
2019-03-06T20:37:10.924Z,17.03
2019-03-06T20:39:40.660Z,17.43
2019-03-06T20:42:10.294Z,16.47
2019-03-06T20:44:39.936Z,23.77
2019-03-06T20:47:09.852Z,14.47
2019-03-06T20:49:39.496Z,14.70
2019-03-06T20:52:09.139Z,19.90
2019-03-06T20:54:40.797Z,19.17
2019-03-06T20:57:10.093Z,17.37
2019-03-06T20:59:42.561Z,18.87
2019-03-06T21:02:12.009Z,14.73
2019-03-06T21:04:41.734Z,19.37
2019-03-06T21:07:11.450Z,14.03
2019-03-06T21:09:41.129Z,19.07
2019-03-06T21:12:10.879Z,15.13
2019-03-06T21:14:41.881Z,18.13
2019-03-06T21:17:11.860Z,16.87
2019-03-06T21:19:43.108Z,18.33
2019-03-06T21:22:12.908Z,16.97
2019-03-06T21:24:42.546Z,16.03
2019-03-06T21:27:12.169Z,16.50
2019-03-06T21:29:42.382Z,25.40
2019-03-06T21:32:12.115Z,15.57
2019-03-06T21:34:41.772Z,18.17
2019-03-06T21:37:11.908Z,17.47
2019-03-06T21:39:41.623Z,17.13
2019-03-06T21:42:11.292Z,13.30
2019-03-06T21:44:40.912Z,16.33
2019-03-06T21:47:10.548Z,19.20
2019-03-06T21:49:41.038Z,14.20
2019-03-06T21:52:10.676Z,12.77
2019-03-06T21:54:40.306Z,16.20
2019-03-06T21:57:09.941Z,19.47
2019-03-06T21:59:39.563Z,18.43
2019-03-06T22:02:09.579Z,14.73
2019-03-06T22:04:41.075Z,17.43
2019-03-06T22:07:10.713Z,15.53
2019-03-06T22:09:40.338Z,19.60
2019-03-06T22:12:11.035Z,18.50
2019-03-06T22:14:40.658Z,20.03
2019-03-06T22:17:10.321Z,19.60
2019-03-06T22:19:40.024Z,15.03
2019-03-06T22:22:09.677Z,14.93
2019-03-06T22:24:39.302Z,20.20
2019-03-06T22:27:08.930Z,21.03
2019-03-06T22:29:38.550Z,17.23
2019-03-06T22:32:08.704Z,15.87
2019-03-06T22:34:38.618Z,17.17
2019-03-06T22:37:08.253Z,14.07
2019-03-06T22:39:37.878Z,20.40
2019-03-06T22:42:07.656Z,17.83
2019-03-06T22:44:37.285Z,21.17
2019-03-06T22:47:07.103Z,14.87
2019-03-06T22:49:36.752Z,17.27
2019-03-06T22:52:06.400Z,16.80
2019-03-06T22:54:36.101Z,18.40
2019-03-06T22:57:05.789Z,15.17
2019-03-06T22:59:35.400Z,15.67
2019-03-06T23:02:05.110Z,13.37
2019-03-06T23:04:34.775Z,12.93
2019-03-06T23:07:04.425Z,19.90
2019-03-06T23:09:34.061Z,18.83
2019-03-06T23:12:03.705Z,14.67
2019-03-06T23:14:35.357Z,19.53
2019-03-06T23:17:05.070Z,17.10
2019-03-06T23:19:34.715Z,14.80
2019-03-06T23:22:04.414Z,17.77
2019-03-06T23:24:34.131Z,14.00
2019-03-06T23:27:04.007Z,13.23
2019-03-06T23:29:33.652Z,15.10
2019-03-06T23:32:03.287Z,12.33
2019-03-06T23:34:32.930Z,16.63
2019-03-06T23:37:02.639Z,11.63
2019-03-06T23:39:32.314Z,14.87
2019-03-06T23:42:02.140Z,16.17
2019-03-06T23:44:31.778Z,17.10
2019-03-06T23:47:01.486Z,12.93
2019-03-06T23:49:31.125Z,10.53
2019-03-06T23:52:00.755Z,15.00
2019-03-06T23:54:30.664Z,15.80
2019-03-06T23:57:00.496Z,12.83
2019-03-06T23:59:30.124Z,16.87
